Time;durP1;ratioP1;P1;durP2;ratioP2;P2;SDS_P1;SDS_P2;PMS_P1;PMS_P2;Temp;Humidity;BMP_temperature;BMP_pressure;BME280_temperature;BME280_humidity;BME280_pressure;Samples;Min_cycle;Max_cycle;Signal;HPM_P1;HPM_P2
2024/02/26 00:00:51;;;;;;;27.23;13.18;;;;;;;10.35;100.00;99374.13;6271861;28;20057;-75
2024/02/26 00:03:55;;;;;;;24.88;12.70;;;;;;;10.42;100.00;99381.41;6254050;28;20061;-74
2024/02/26 00:06:55;;;;;;;25.73;11.85;;;;;;;10.46;100.00;99369.81;6247761;28;20053;-75
2024/02/26 00:09:58;;;;;;;27.45;11.88;;;;;;;10.45;100.00;99370.75;6266931;28;20045;-74
2024/02/26 00:12:59;;;;;;;23.25;12.43;;;;;;;10.47;100.00;99366.25;6272291;28;20102;-75
2024/02/26 00:16:00;;;;;;;23.83;11.40;;;;;;;10.46;100.00;99367.22;6271119;28;20394;-74
2024/02/26 00:19:01;;;;;;;25.33;11.85;;;;;;;10.49;100.00;99358.31;6271612;28;20438;-74
2024/02/26 00:22:04;;;;;;;24.63;10.13;;;;;;;10.51;100.00;99361.66;6272497;28;20056;-74
2024/02/26 00:25:07;;;;;;;17.52;10.75;;;;;;;10.53;100.00;99359.75;6259148;28;20060;-75
2024/02/26 00:28:08;;;;;;;21.05;10.43;;;;;;;10.52;100.00;99365.91;6246088;28;20397;-75
2024/02/26 00:31:09;;;;;;;20.42;11.50;;;;;;;10.34;100.00;99360.25;6251635;28;20053;-75
2024/02/26 00:34:12;;;;;;;19.05;11.07;;;;;;;10.43;100.00;99377.03;6250865;28;20477;-75
2024/02/26 00:37:13;;;;;;;20.55;11.48;;;;;;;10.47;100.00;99366.25;6252713;28;20053;-74
2024/02/26 00:40:13;;;;;;;16.42;10.40;;;;;;;10.55;100.00;99367.50;6271850;28;20059;-75
2024/02/26 00:43:14;;;;;;;23.17;11.35;;;;;;;10.54;100.00;99371.84;6255006;28;20053;-75
2024/02/26 00:46:15;;;;;;;19.80;10.98;;;;;;;10.48;100.00;99360.09;6248082;28;20571;-74
2024/02/26 00:49:18;;;;;;;16.98;10.02;;;;;;;10.46;100.00;99355.94;6251115;28;20049;-74
2024/02/26 00:52:19;;;;;;;20.23;10.45;;;;;;;10.50;100.00;99362.63;6254613;28;20124;-74
2024/02/26 00:55:20;;;;;;;20.20;10.98;;;;;;;10.38;100.00;99364.31;6276783;28;20049;-74
2024/02/26 00:58:21;;;;;;;18.88;10.10;;;;;;;10.42;100.00;99367.53;6254250;28;20413;-74
2024/02/26 01:01:21;;;;;;;16.90;10.23;;;;;;;10.46;100.00;99363.78;6267074;28;20088;-74
2024/02/26 01:04:24;;;;;;;18.27;10.55;;;;;;;10.46;100.00;99367.22;6275491;28;20128;-75
2024/02/26 01:07:25;;;;;;;16.70;9.98;;;;;;;10.52;100.00;99365.91;6276566;28;20041;-70
2024/02/26 01:10:26;;;;;;;16.42;9.63;;;;;;;10.52;100.00;99365.91;6254748;28;20401;-70
2024/02/26 01:13:27;;;;;;;15.70;9.90;;;;;;;10.44;100.00;99357.84;6269724;28;20064;-74
2024/02/26 01:16:29;;;;;;;17.65;10.82;;;;;;;10.51;100.00;99366.03;6250301;28;20053;-75
2024/02/26 01:19:29;;;;;;;23.20;11.15;;;;;;;10.43;100.00;99361.38;6252637;28;20053;-75
2024/02/26 01:22:33;;;;;;;24.80;10.73;;;;;;;10.52;100.00;99358.09;6260995;28;20140;-74
2024/02/26 01:25:36;;;;;;;18.20;10.55;;;;;;;10.52;100.00;99355.47;6276303;28;20519;-75
2024/02/26 01:28:39;;;;;;;20.60;10.18;;;;;;;10.56;100.00;99353.50;6276086;28;20080;-74
2024/02/26 01:31:41;;;;;;;19.67;10.25;;;;;;;10.42;100.00;99344.91;6272762;28;20053;-70
2024/02/26 01:34:41;;;;;;;20.42;10.45;;;;;;;10.33;100.00;99344.72;6251059;28;20456;-70
2024/02/26 01:37:42;;;;;;;23.63;11.80;;;;;;;10.28;100.00;99343.22;6251278;28;20060;-70
2024/02/26 01:40:43;;;;;;;29.85;13.07;;;;;;;10.25;100.00;99348.69;6249889;28;20500;-74
2024/02/26 01:43:44;;;;;;;26.63;13.57;;;;;;;10.22;100.00;99340.22;6249979;28;20437;-70
2024/02/26 01:46:47;;;;;;;22.05;12.05;;;;;;;10.14;100.00;99342.53;6250926;28;20076;-70
2024/02/26 01:49:52;;;;;;;22.92;12.15;;;;;;;10.06;100.00;99337.88;6252600;28;20382;-70
2024/02/26 01:52:54;;;;;;;21.70;11.38;;;;;;;10.03;100.00;99340.72;6275016;28;20079;-70
2024/02/26 01:55:55;;;;;;;26.50;12.65;;;;;;;9.92;100.00;99338.81;6275272;28;20056;-70
2024/02/26 01:58:57;;;;;;;40.88;16.38;;;;;;;9.83;100.00;99329.88;6274106;28;20052;-70
2024/02/26 02:02:01;;;;;;;36.55;15.15;;;;;;;9.86;100.00;99334.03;6249167;28;20124;-70
2024/02/26 02:05:03;;;;;;;32.15;13.70;;;;;;;9.83;100.00;99332.47;6249377;28;20053;-70
2024/02/26 02:08:05;;;;;;;31.83;13.50;;;;;;;9.79;100.00;99330.22;6260154;28;20049;-70
2024/02/26 02:11:06;;;;;;;29.85;12.80;;;;;;;9.73;100.00;99320.22;6274799;28;20060;-70
2024/02/26 02:14:07;;;;;;;23.60;12.23;;;;;;;9.66;100.00;99320.63;6273729;28;20064;-74
2024/02/26 02:17:09;;;;;;;18.58;11.25;;;;;;;9.64;100.00;99321.69;6270512;28;20061;-75
2024/02/26 02:20:18;;;;;;;19.38;11.68;;;;;;;9.59;100.00;99315.94;6250569;28;20099;-74
2024/02/26 02:23:19;;;;;;;24.58;10.85;;;;;;;9.51;100.00;99316.47;6255813;28;20053;-75
2024/02/26 02:26:21;;;;;;;20.15;11.02;;;;;;;9.48;100.00;99320.13;6256530;28;20059;-75
2024/02/26 02:29:21;;;;;;;17.05;10.98;;;;;;;9.31;100.00;99310.03;6273590;28;20064;-74
2024/02/26 02:32:25;;;;;;;17.83;9.93;;;;;;;9.27;100.00;99324.19;6267730;28;20136;-75
2024/02/26 02:35:25;;;;;;;17.20;8.98;;;;;;;9.19;100.00;99321.25;6259316;28;20045;-70
2024/02/26 02:38:29;;;;;;;18.95;10.32;;;;;;;9.16;100.00;99326.66;6257264;28;20061;-70
2024/02/26 02:41:30;;;;;;;17.10;9.55;;;;;;;9.21;100.00;99332.41;6274158;28;20049;-70
2024/02/26 02:44:32;;;;;;;18.27;9.68;;;;;;;9.21;100.00;99325.41;6274322;28;20057;-70
2024/02/26 02:47:36;;;;;;;22.08;9.65;;;;;;;9.17;100.00;99323.13;6256324;28;20089;-71
2024/02/26 02:50:37;;;;;;;19.65;10.32;;;;;;;9.16;100.00;99326.66;6249621;28;20056;-74
2024/02/26 02:53:38;;;;;;;14.73;9.00;;;;;;;9.11;100.00;99321.75;6261593;28;20391;-74
2024/02/26 02:56:39;;;;;;;17.67;9.32;;;;;;;9.10;100.00;99319.25;6248785;28;20049;-71
2024/02/26 02:59:40;;;;;;;17.30;9.25;;;;;;;9.01;100.00;99318.09;6273334;28;20060;-70
2024/02/26 03:02:40;;;;;;;24.65;9.55;;;;;;;8.95;100.00;99311.53;6272433;28;20542;-70
2024/02/26 03:05:41;;;;;;;22.83;10.02;;;;;;;8.94;100.00;99314.25;6273889;28;20484;-70
2024/02/26 03:08:42;;;;;;;20.98;10.23;;;;;;;8.91;100.00;99312.66;6271819;28;20053;-75
2024/02/26 03:11:43;;;;;;;20.05;10.15;;;;;;;8.85;100.00;99311.31;6272443;28;20568;-75
2024/02/26 03:14:48;;;;;;;21.17;10.23;;;;;;;8.83;100.00;99309.72;6273536;28;20053;-75
2024/02/26 03:17:49;;;;;;;19.52;10.00;;;;;;;8.79;100.00;99309.13;6273711;28;20132;-75
2024/02/26 03:20:52;;;;;;;23.33;10.07;;;;;;;8.66;100.00;99303.84;6272279;28;20049;-75
2024/02/26 03:23:57;;;;;;;17.10;9.30;;;;;;;8.64;100.00;99305.72;6272072;28;20547;-75
2024/02/26 03:26:58;;;;;;;17.77;8.70;;;;;;;8.61;100.00;99298.13;6273626;28;20053;-74
2024/02/26 03:29:59;;;;;;;16.05;8.27;;;;;;;8.59;100.00;99299.19;6271957;28;20420;-75
2024/02/26 03:33:00;;;;;;;19.48;9.48;;;;;;;8.58;100.00;99300.09;6272364;28;20057;-74
2024/02/26 03:36:01;;;;;;;18.58;9.68;;;;;;;8.54;100.00;99299.44;6272889;28;20049;-74
2024/02/26 03:39:07;;;;;;;16.67;9.45;;;;;;;8.57;100.00;99299.28;6273098;28;20470;-74
2024/02/26 03:42:08;;;;;;;22.90;8.55;;;;;;;8.50;100.00;99300.59;6272774;28;20057;-74
2024/02/26 03:45:09;;;;;;;19.58;9.75;;;;;;;8.47;100.00;99293.81;6271765;28;20057;-74
2024/02/26 03:48:10;;;;;;;16.58;8.60;;;;;;;8.35;100.00;99289.38;6261018;28;20080;-70
2024/02/26 03:51:10;;;;;;;15.00;8.80;;;;;;;8.33;100.00;99293.00;6248010;28;20060;-76
2024/02/26 03:54:11;;;;;;;15.02;8.85;;;;;;;8.35;100.00;99285.94;6246688;28;20456;-74
2024/02/26 03:57:12;;;;;;;14.27;8.05;;;;;;;8.39;100.00;99288.25;6246654;28;20426;-74
2024/02/26 04:00:15;;;;;;;20.08;8.25;;;;;;;8.43;100.00;99289.75;6248158;28;20057;-75
2024/02/26 04:03:16;;;;;;;13.25;8.15;;;;;;;8.46;100.00;99299.13;6272408;28;20068;-74
2024/02/26 04:06:20;;;;;;;16.42;8.82;;;;;;;8.52;100.00;99295.28;6271277;28;20485;-74
2024/02/26 04:09:21;;;;;;;26.30;8.60;;;;;;;8.50;100.00;99295.38;6271562;28;20094;-74
2024/02/26 04:12:23;;;;;;;13.68;8.30;;;;;;;8.55;100.00;99293.34;6272499;28;20049;-70
2024/02/26 04:15:24;;;;;;;14.52;8.38;;;;;;;8.61;100.00;99295.53;6272184;28;20077;-70
2024/02/26 04:18:28;;;;;;;16.48;7.82;;;;;;;8.65;100.00;99301.38;6271306;28;20045;-70
2024/02/26 04:21:28;;;;;;;11.65;7.50;;;;;;;8.71;100.00;99303.59;6272002;28;20057;-70
2024/02/26 04:24:32;;;;;;;18.02;8.43;;;;;;;8.75;100.00;99302.44;6265874;28;20075;-70
2024/02/26 04:27:32;;;;;;;18.50;8.15;;;;;;;8.76;100.00;99300.69;6266920;28;20076;-71
2024/02/26 04:30:33;;;;;;;18.42;8.10;;;;;;;8.76;100.00;99292.88;6272227;28;20059;-75
2024/02/26 04:33:34;;;;;;;13.88;7.88;;;;;;;8.79;100.00;99301.31;6271935;28;20438;-75
2024/02/26 04:36:35;;;;;;;15.48;7.63;;;;;;;8.81;100.00;99309.84;6272075;28;20127;-75
2024/02/26 04:39:36;;;;;;;16.23;8.82;;;;;;;8.80;100.00;99295.16;6267322;28;20059;-75
2024/02/26 04:42:37;;;;;;;18.63;8.55;;;;;;;8.72;100.00;99297.44;6271913;28;20059;-75
2024/02/26 04:45:40;;;;;;;16.38;8.75;;;;;;;8.69;100.00;99297.66;6270434;28;20073;-75
2024/02/26 04:48:41;;;;;;;18.45;9.38;;;;;;;8.69;100.00;99308.06;6270590;28;20053;-70
2024/02/26 04:51:42;;;;;;;16.17;8.93;;;;;;;8.62;100.00;99311.97;6271975;28;20561;-69
2024/02/26 04:54:43;;;;;;;22.48;8.65;;;;;;;8.56;100.00;99310.59;6270495;28;20053;-70
2024/02/26 04:57:44;;;;;;;13.48;7.75;;;;;;;8.51;100.00;99310.06;6270757;28;20078;-69
2024/02/26 05:00:44;;;;;;;23.13;8.45;;;;;;;8.45;100.00;99313.06;6267017;28;20077;-69
2024/02/26 05:03:45;;;;;;;15.75;7.57;;;;;;;8.44;100.00;99324.38;6246299;28;20132;-70
2024/02/26 05:06:46;;;;;;;14.52;8.25;;;;;;;8.43;100.00;99317.53;6266057;28;20528;-69
2024/02/26 05:09:49;;;;;;;13.73;7.85;;;;;;;8.39;100.00;99324.66;6254132;28;20049;-74
2024/02/26 05:12:50;;;;;;;13.35;7.68;;;;;;;8.28;100.00;99324.50;6257071;28;20057;-74
2024/02/26 05:15:52;;;;;;;15.45;7.75;;;;;;;8.32;100.00;99325.13;6259507;28;20485;-74
2024/02/26 05:18:53;;;;;;;18.67;8.03;;;;;;;8.31;100.00;99326.06;6250839;28;20045;-74
2024/02/26 05:21:56;;;;;;;17.63;8.57;;;;;;;8.34;100.00;99328.47;6265342;28;20382;-74
2024/02/26 05:24:57;;;;;;;12.90;7.15;;;;;;;8.14;100.00;99333.16;6256372;28;20098;-74
2024/02/26 05:27:58;;;;;;;15.32;8.10;;;;;;;8.31;100.00;99334.69;6251788;28;20041;-74
2024/02/26 05:31:00;;;;;;;14.75;7.45;;;;;;;8.29;100.00;99336.56;6256883;28;20049;-74
2024/02/26 05:34:00;;;;;;;14.80;7.22;;;;;;;8.26;100.00;99328.97;6274911;28;20049;-74
2024/02/26 05:37:02;;;;;;;14.35;7.40;;;;;;;8.24;100.00;99338.63;6272033;28;20108;-70
2024/02/26 05:40:04;;;;;;;19.80;7.63;;;;;;;8.26;100.00;99336.75;6253495;28;20946;-70
2024/02/26 05:43:05;;;;;;;12.68;7.43;;;;;;;8.24;100.00;99342.03;6272129;28;20045;-70
2024/02/26 05:46:11;;;;;;;15.15;7.10;;;;;;;8.23;100.00;99340.38;6266976;28;20056;-70
2024/02/26 05:49:14;;;;;;;17.35;7.10;;;;;;;8.15;100.00;99349.56;6253788;28;20140;-69
2024/02/26 05:52:17;;;;;;;12.50;7.20;;;;;;;8.23;100.00;99350.75;6251145;28;20053;-69
2024/02/26 05:55:18;;;;;;;14.73;6.93;;;;;;;8.30;100.00;99355.56;6266869;28;20497;-70
2024/02/26 05:58:19;;;;;;;11.63;7.03;;;;;;;8.32;100.00;99354.56;6264435;28;20053;-71
2024/02/26 06:01:20;;;;;;;13.02;6.68;;;;;;;8.31;100.00;99355.47;6272742;28;20061;-70
2024/02/26 06:04:21;;;;;;;15.52;7.88;;;;;;;8.39;100.00;99361.03;6269255;28;20053;-70
2024/02/26 06:07:22;;;;;;;14.15;6.75;;;;;;;8.40;100.00;99360.13;6250495;28;20053;-71
2024/02/26 06:10:22;;;;;;;20.83;6.97;;;;;;;8.45;100.00;99359.84;6251447;28;20075;-70
2024/02/26 06:13:23;;;;;;;13.15;6.50;;;;;;;8.51;100.00;99354.28;6250330;28;20490;-69
2024/02/26 06:16:24;;;;;;;14.98;8.30;;;;;;;8.63;100.00;99360.47;6250127;28;20406;-69
2024/02/26 06:19:25;;;;;;;17.85;7.90;;;;;;;8.59;100.00;99356.38;6250691;28;20556;-69
2024/02/26 06:22:28;;;;;;;15.30;7.95;;;;;;;8.61;100.00;99350.16;6256196;28;20084;-70
2024/02/26 06:25:30;;;;;;;16.38;8.00;;;;;;;8.62;100.00;99346.59;6267715;28;20055;-70
2024/02/26 06:28:33;;;;;;;16.70;9.68;;;;;;;8.87;100.00;99348.47;6261268;28;20493;-70
2024/02/26 06:31:34;;;;;;;18.83;9.80;;;;;;;9.03;100.00;99345.69;6272999;28;20053;-70
2024/02/26 06:34:35;;;;;;;20.83;9.13;;;;;;;9.20;100.00;99339.34;6273516;28;20460;-69
2024/02/26 06:37:38;;;;;;;16.58;8.52;;;;;;;9.36;100.00;99344.38;6273615;28;20405;-70
2024/02/26 06:40:41;;;;;;;16.75;7.85;;;;;;;9.46;100.00;99355.00;6272201;28;20150;-70
2024/02/26 06:43:42;;;;;;;10.98;6.93;;;;;;;9.59;100.00;99348.03;6271326;28;20084;-74
2024/02/26 06:46:42;;;;;;;12.88;6.88;;;;;;;9.66;100.00;99344.06;6272028;28;20055;-74
2024/02/26 06:49:46;;;;;;;12.85;6.97;;;;;;;9.88;100.00;99345.19;6273150;28;20485;-74
2024/02/26 06:52:47;;;;;;;13.70;7.07;;;;;;;10.03;100.00;99345.91;6273291;28;20052;-74
2024/02/26 06:55:50;;;;;;;12.23;6.40;;;;;;;10.21;100.00;99344.63;6272863;28;20040;-74
2024/02/26 06:58:50;;;;;;;11.43;6.43;;;;;;;10.27;100.00;99348.53;6273260;28;20049;-74
2024/02/26 07:01:51;;;;;;;12.88;6.38;;;;;;;10.42;100.00;99342.28;6272809;28;20437;-74
2024/02/26 07:04:52;;;;;;;13.07;6.43;;;;;;;10.66;100.00;99344.06;6271879;28;20049;-74
2024/02/26 07:07:53;;;;;;;13.73;6.25;;;;;;;10.54;100.00;99337.94;6271507;28;20128;-74
2024/02/26 07:10:56;;;;;;;14.43;6.50;;;;;;;10.68;100.00;99342.16;6272701;28;20053;-74
2024/02/26 07:13:57;;;;;;;18.73;8.70;;;;;;;10.83;100.00;99342.81;6272715;28;20053;-74
2024/02/26 07:16:58;;;;;;;15.18;7.35;;;;;;;10.89;100.00;99342.38;6272483;28;20091;-74
2024/02/26 07:20:04;;;;;;;15.70;6.80;;;;;;;11.16;100.00;99336.91;6271493;28;20133;-74
2024/02/26 07:23:04;;;;;;;13.77;6.00;;;;;;;11.28;100.00;99342.97;6272418;28;20048;-70
2024/02/26 07:26:05;;;;;;;14.77;6.78;;;;;;;11.48;100.00;99336.25;6272238;28;20208;-71
2024/02/26 07:29:06;;;;;;;13.13;6.68;;;;;;;11.61;100.00;99333.50;6271144;28;20045;-71
2024/02/26 07:32:07;;;;;;;11.65;6.00;;;;;;;11.69;100.00;99332.00;6272401;28;20139;-71
2024/02/26 07:35:10;;;;;;;16.42;6.88;;;;;;;11.75;99.87;99327.22;6272028;28;20110;-71
2024/02/26 07:38:14;;;;;;;12.55;5.97;;;;;;;11.83;98.07;99322.25;6272233;28;20138;-71
2024/02/26 07:41:14;;;;;;;10.48;5.97;;;;;;;12.26;96.38;99324.94;6272310;28;20053;-70
2024/02/26 07:44:15;;;;;;;10.77;5.70;;;;;;;12.62;95.13;99320.34;6271934;28;20136;-71
2024/02/26 07:47:16;;;;;;;11.50;5.43;;;;;;;12.80;94.11;99314.56;6271745;28;20045;-71
2024/02/26 07:50:17;;;;;;;10.40;4.95;;;;;;;12.79;95.36;99326.81;6271845;28;20493;-75
2024/02/26 07:53:18;;;;;;;20.05;6.28;;;;;;;12.86;92.37;99327.16;6271719;28;20052;-75
2024/02/26 07:56:19;;;;;;;15.18;5.53;;;;;;;13.01;91.88;99323.28;6269898;28;20546;-75
2024/02/26 07:59:22;;;;;;;15.32;6.57;;;;;;;13.31;92.21;99324.31;6270512;28;20048;-75
2024/02/26 08:02:23;;;;;;;11.55;5.80;;;;;;;13.47;90.86;99329.94;6271414;28;20057;-71
2024/02/26 08:05:25;;;;;;;10.60;6.00;;;;;;;13.75;88.14;99329.38;6270447;28;20485;-70
2024/02/26 08:08:28;;;;;;;12.23;5.50;;;;;;;13.81;86.62;99327.03;6271462;28;20045;-70
2024/02/26 08:11:31;;;;;;;13.68;4.68;;;;;;;14.06;83.22;99336.25;6271596;28;20095;-70
2024/02/26 08:14:32;;;;;;;12.57;5.35;;;;;;;14.36;81.73;99326.66;6270217;28;20052;-70
2024/02/26 08:17:33;;;;;;;9.60;4.75;;;;;;;14.60;79.64;99330.72;6269925;28;20049;-70
2024/02/26 08:20:34;;;;;;;9.70;4.50;;;;;;;14.74;79.10;99338.19;6270093;28;20528;-70
2024/02/26 08:23:35;;;;;;;9.93;4.75;;;;;;;14.89;77.99;99330.75;6271115;28;20055;-71
2024/02/26 08:26:38;;;;;;;10.52;5.43;;;;;;;15.05;77.43;99322.28;6270023;28;20163;-71
2024/02/26 08:29:39;;;;;;;9.80;5.03;;;;;;;15.22;76.54;99331.28;6270965;28;20053;-71
2024/02/26 08:32:39;;;;;;;15.45;4.53;;;;;;;15.40;74.21;99329.56;6270960;28;20061;-70
2024/02/26 08:35:40;;;;;;;14.18;4.03;;;;;;;15.63;72.08;99323.97;6270926;28;20476;-70
2024/02/26 08:38:41;;;;;;;9.98;4.35;;;;;;;15.61;70.56;99332.00;6270926;28;20049;-70
2024/02/26 08:41:42;;;;;;;7.43;3.45;;;;;;;15.96;70.15;99321.75;6269622;28;20056;-71
2024/02/26 08:44:43;;;;;;;10.65;4.47;;;;;;;16.21;69.77;99323.72;6271061;28;20052;-70
2024/02/26 08:47:45;;;;;;;15.68;6.05;;;;;;;16.17;68.29;99318.91;6270603;28;20099;-70
2024/02/26 08:50:46;;;;;;;12.65;5.53;;;;;;;16.19;67.62;99320.41;6271204;28;20045;-71
2024/02/26 08:53:47;;;;;;;13.75;4.55;;;;;;;16.23;65.92;99313.88;6269557;28;20579;-71
2024/02/26 08:56:47;;;;;;;8.85;3.28;;;;;;;16.36;66.21;99312.69;6270557;28;20057;-71
2024/02/26 08:59:48;;;;;;;11.38;3.90;;;;;;;16.62;66.30;99313.59;6269547;28;20548;-70
2024/02/26 09:02:49;;;;;;;6.10;3.55;;;;;;;16.64;65.15;99314.28;6270549;28;20107;-70
2024/02/26 09:05:50;;;;;;;7.90;3.33;;;;;;;16.63;66.11;99314.44;6270787;28;20052;-71
2024/02/26 09:08:53;;;;;;;16.25;4.47;;;;;;;17.08;67.17;99313.53;6272650;28;20063;-71
2024/02/26 09:11:55;;;;;;;9.25;3.70;;;;;;;17.12;65.38;99313.06;6274272;28;20512;-70
2024/02/26 09:14:57;;;;;;;6.57;2.92;;;;;;;17.21;65.10;99306.03;6275590;28;20049;-71
2024/02/26 09:17:58;;;;;;;;;;;;;;;16.99;64.24;99303.91;6275695;28;20044;-72
2024/02/26 09:20:58;;;;;;;5.85;2.88;;;;;;;17.41;65.08;99313.75;6275298;28;20408;-71
2024/02/26 09:23:59;;;;;;;6.10;2.90;;;;;;;17.53;64.47;99309.88;6274101;28;20501;-71
2024/02/26 09:27:00;;;;;;;4.57;2.65;;;;;;;17.63;64.30;99320.31;6274001;28;20051;-71
2024/02/26 09:30:00;;;;;;;5.70;2.20;;;;;;;17.55;64.69;99309.72;6273824;28;20056;-72
2024/02/26 09:33:01;;;;;;;6.25;2.65;;;;;;;17.47;63.02;99316.59;6275275;28;20057;-71
2024/02/26 09:36:04;;;;;;;6.38;2.00;;;;;;;17.35;63.19;99314.38;6274922;28;20132;-70
2024/02/26 09:39:07;;;;;;;3.72;1.92;;;;;;;17.35;63.74;99315.19;6273850;28;20067;-71
2024/02/26 09:42:09;;;;;;;7.13;2.33;;;;;;;17.46;64.55;99309.66;6274876;28;20053;-71
2024/02/26 09:45:17;;;;;;;6.10;2.72;;;;;;;17.26;64.11;99309.03;6273804;28;20053;-75
2024/02/26 09:48:18;;;;;;;5.45;2.67;;;;;;;16.89;63.82;99307.44;6273569;28;20080;-75
2024/02/26 09:51:23;;;;;;;4.40;2.25;;;;;;;16.84;65.35;99311.50;6273717;28;20053;-75
2024/02/26 09:54:26;;;;;;;7.35;2.85;;;;;;;16.68;65.82;99328.00;6274662;28;20053;-75
2024/02/26 09:57:27;;;;;;;6.18;2.30;;;;;;;16.69;65.68;99327.00;6274665;28;20132;-75
2024/02/26 10:00:33;;;;;;;5.07;2.47;;;;;;;17.02;65.56;99330.78;6274345;28;20487;-75
2024/02/26 10:03:44;;;;;;;5.15;2.55;;;;;;;17.06;65.13;99318.13;6274428;28;20405;-75
2024/02/26 10:06:46;;;;;;;6.60;2.70;;;;;;;17.28;65.80;99329.97;6273228;28;20049;-75
2024/02/26 10:09:49;;;;;;;6.43;2.80;;;;;;;17.33;64.60;99325.06;6274246;28;20048;-75
2024/02/26 10:12:50;;;;;;;8.18;2.50;;;;;;;17.42;63.39;99318.88;6273097;28;20048;-75
2024/02/26 10:15:50;;;;;;;5.68;3.00;;;;;;;17.48;63.75;99323.53;6272783;28;20099;-75
2024/02/26 10:18:56;;;;;;;8.73;2.53;;;;;;;17.78;63.30;99317.91;6272418;28;20386;-75
2024/02/26 10:21:57;;;;;;;5.57;2.50;;;;;;;18.03;62.00;99318.84;6272822;28;20103;-75
2024/02/26 10:24:58;;;;;;;5.05;2.65;;;;;;;17.97;61.52;99316.84;6272910;28;20053;-75
2024/02/26 10:28:03;;;;;;;5.43;2.45;;;;;;;17.90;60.27;99325.41;6273732;28;20072;-75
2024/02/26 10:31:04;;;;;;;6.95;2.58;;;;;;;18.31;60.50;99325.56;6272799;28;20045;-75
2024/02/26 10:34:05;;;;;;;4.57;2.55;;;;;;;18.23;59.76;99311.50;6272530;28;20139;-75
2024/02/26 10:37:06;;;;;;;5.10;2.70;;;;;;;18.29;60.66;99308.22;6273721;28;20048;-75
2024/02/26 10:40:19;;;;;;;8.07;3.53;;;;;;;18.48;60.08;99307.09;6272470;28;20056;-75
2024/02/26 10:43:19;;;;;;;7.20;2.55;;;;;;;18.66;59.06;99305.16;6273453;28;20139;-75
2024/02/26 10:46:20;;;;;;;5.25;2.65;;;;;;;18.81;59.49;99300.06;6272191;28;20481;-75
2024/02/26 10:49:21;;;;;;;4.00;1.73;;;;;;;18.81;58.67;99300.06;6273381;28;20052;-75
2024/02/26 10:52:25;;;;;;;3.90;1.90;;;;;;;18.65;59.31;99305.31;6272094;28;20048;-71
2024/02/26 10:55:25;;;;;;;6.75;2.47;;;;;;;18.12;57.84;99294.97;6272808;28;20053;-71
2024/02/26 10:58:28;;;;;;;4.53;2.58;;;;;;;18.52;57.23;99295.22;6273085;28;20068;-71
2024/02/26 11:01:31;;;;;;;4.45;2.45;;;;;;;18.47;58.65;99301.00;6272738;28;20068;-71
2024/02/26 11:04:33;;;;;;;3.78;2.65;;;;;;;18.47;57.65;99292.22;6271783;28;20091;-71
2024/02/26 11:07:37;;;;;;;7.20;2.60;;;;;;;18.45;58.63;99302.13;6272868;28;20131;-75
2024/02/26 11:10:39;;;;;;;6.68;2.33;;;;;;;18.20;57.98;99302.09;6271870;28;20053;-75
2024/02/26 11:13:40;;;;;;;5.47;2.30;;;;;;;17.88;58.69;99287.78;6271633;28;20053;-70
2024/02/26 11:16:42;;;;;;;9.50;3.30;;;;;;;18.41;58.46;99285.81;6272966;28;20055;-71
2024/02/26 11:19:44;;;;;;;3.50;2.10;;;;;;;18.64;58.91;99278.06;6271457;28;20273;-71
2024/02/26 11:22:45;;;;;;;4.20;2.22;;;;;;;18.82;58.29;99280.59;6272515;28;20045;-75
2024/02/26 11:25:47;;;;;;;4.10;2.15;;;;;;;18.77;56.80;99282.84;6272634;28;20644;-71
2024/02/26 11:28:49;;;;;;;5.10;2.63;;;;;;;18.73;57.10;99279.69;6272311;28;20562;-75
2024/02/26 11:31:51;;;;;;;5.70;2.30;;;;;;;18.71;57.05;99288.78;6270642;28;20142;-76
2024/02/26 11:34:53;;;;;;;;;;;;;;;18.77;56.75;99284.66;6272699;28;20067;-71
2024/02/26 11:37:55;;;;;;;5.88;2.25;;;;;;;18.63;57.30;99278.22;6272250;28;20015;-76
2024/02/26 11:40:58;;;;;;;3.35;2.20;;;;;;;18.60;56.99;99281.19;6272000;28;20128;-75
2024/02/26 11:44:05;;;;;;;7.20;2.47;;;;;;;18.75;57.81;99278.72;6272302;28;20077;-71
2024/02/26 11:47:17;;;;;;;4.90;1.77;;;;;;;18.64;56.60;99285.97;6270667;28;20518;-71
2024/02/26 11:50:41;;;;;;;3.95;1.98;;;;;;;18.52;56.87;99284.66;6271893;28;20053;-70
2024/02/26 11:53:48;;;;;;;3.47;2.05;;;;;;;18.52;56.74;99272.25;6271719;28;20124;-71
2024/02/26 11:56:50;;;;;;;2.83;2.10;;;;;;;18.79;56.79;99267.69;6270539;28;20045;-70
2024/02/26 11:59:51;;;;;;;3.80;2.42;;;;;;;18.67;57.59;99263.69;6271486;28;20513;-75
2024/02/26 12:03:01;;;;;;;3.08;2.03;;;;;;;18.61;57.97;99264.34;6270402;28;20059;-75
2024/02/26 12:06:01;;;;;;;4.57;2.05;;;;;;;18.90;56.95;99255.94;6271692;28;20052;-75
2024/02/26 12:09:02;;;;;;;2.40;1.73;;;;;;;19.08;56.69;99261.06;6271676;28;20052;-75
2024/02/26 12:12:06;;;;;;;5.35;2.55;;;;;;;19.13;57.06;99261.38;6270285;28;20470;-70
2024/02/26 12:15:12;;;;;;;4.97;2.20;;;;;;;19.08;57.58;99258.41;6271383;28;20459;-75
2024/02/26 12:18:18;;;;;;;2.55;2.15;;;;;;;19.17;56.81;99254.78;6270138;28;20060;-70
2024/02/26 12:21:19;;;;;;;5.80;2.40;;;;;;;19.60;56.49;99249.16;6270371;28;20045;-75
2024/02/26 12:24:20;;;;;;;5.00;2.63;;;;;;;19.78;55.32;99254.25;6271332;28;20067;-75
2024/02/26 12:27:23;;;;;;;4.70;2.63;;;;;;;19.85;55.87;99252.56;6270087;28;20519;-75
2024/02/26 12:30:30;;;;;;;6.60;2.55;;;;;;;20.08;54.95;99244.69;6271144;28;20381;-70
2024/02/26 12:33:31;;;;;;;5.53;2.67;;;;;;;19.75;54.50;99244.00;6271169;28;20588;-76
2024/02/26 12:36:34;;;;;;;3.33;2.22;;;;;;;19.55;55.57;99238.28;6271242;28;20041;-76
2024/02/26 12:39:38;;;;;;;3.03;2.05;;;;;;;19.60;55.91;99238.59;6270945;28;20048;-75
2024/02/26 12:42:40;;;;;;;4.43;2.20;;;;;;;19.78;56.48;99235.72;6271173;28;20056;-76
2024/02/26 12:45:41;;;;;;;5.47;2.22;;;;;;;19.97;56.15;99237.13;6269681;28;20416;-70
2024/02/26 12:48:47;;;;;;;6.95;2.28;;;;;;;19.58;55.94;99224.72;6269969;28;20048;-75
2024/02/26 12:51:48;;;;;;;5.70;2.90;;;;;;;19.52;55.97;99227.06;6270922;28;20048;-71
2024/02/26 12:54:49;;;;;;;4.10;2.00;;;;;;;19.37;55.97;99225.28;6269899;28;20057;-71
2024/02/26 12:57:51;;;;;;;6.57;2.65;;;;;;;19.33;54.50;99225.63;6269575;28;20045;-70
2024/02/26 13:00:53;;;;;;;3.67;1.75;;;;;;;19.17;55.98;99222.19;6269197;28;20588;-70
2024/02/26 13:03:56;;;;;;;3.55;2.03;;;;;;;19.20;56.34;99227.16;6270809;28;20140;-70
2024/02/26 13:07:03;;;;;;;6.70;2.22;;;;;;;19.17;55.60;99223.03;6270591;28;20076;-70
2024/02/26 13:10:04;;;;;;;2.80;2.03;;;;;;;19.41;55.14;99222.13;6270670;28;20049;-70
2024/02/26 13:13:05;;;;;;;2.07;1.87;;;;;;;19.82;54.36;99224.63;6269500;28;20045;-70
2024/02/26 13:16:09;;;;;;;6.10;2.42;;;;;;;20.09;53.73;99218.00;6269487;28;20053;-71
2024/02/26 13:19:10;;;;;;;6.50;2.22;;;;;;;19.92;53.24;99213.81;6270332;28;20099;-70
2024/02/26 13:22:14;;;;;;;2.92;2.08;;;;;;;20.14;52.78;99220.16;6270804;28;20501;-71
2024/02/26 13:25:20;;;;;;;7.68;2.53;;;;;;;19.67;54.34;99213.09;6270431;28;20099;-71
2024/02/26 13:28:27;;;;;;;10.65;2.50;;;;;;;19.63;54.59;99217.91;6270590;28;20049;-71
2024/02/26 13:31:27;;;;;;;6.10;2.65;;;;;;;19.27;54.64;99218.38;6270192;28;20194;-70
2024/02/26 13:34:33;;;;;;;5.05;2.95;;;;;;;19.02;55.08;99211.50;6270374;28;20056;-71
2024/02/26 13:37:35;;;;;;;5.78;2.45;;;;;;;18.96;55.70;99215.63;6269034;28;20049;-70
2024/02/26 13:40:35;;;;;;;;;;;;;;;18.86;56.23;99209.69;6270814;28;20053;-71
2024/02/26 13:43:36;;;;;;;3.05;2.13;;;;;;;18.92;56.57;99217.81;6270388;28;19935;-70
2024/02/26 13:46:37;;;;;;;7.60;2.78;;;;;;;18.89;56.07;99217.31;6269347;28;20041;-70
2024/02/26 13:49:37;;;;;;;6.47;2.55;;;;;;;19.02;55.52;99214.13;6270315;28;20050;-70
2024/02/26 13:52:38;;;;;;;5.47;2.55;;;;;;;19.12;55.82;99214.78;6268999;28;20096;-71
2024/02/26 13:55:42;;;;;;;6.20;2.70;;;;;;;19.37;56.68;99218.16;6273174;28;20607;-70
2024/02/26 13:58:43;;;;;;;5.43;2.33;;;;;;;19.49;55.24;99214.16;6274519;28;20489;-71
2024/02/26 14:01:44;;;;;;;3.58;2.25;;;;;;;19.66;54.38;99207.00;6273258;28;20068;-70
2024/02/26 14:04:46;;;;;;;5.05;2.33;;;;;;;19.41;54.51;99218.66;6273186;28;20091;-71
2024/02/26 14:07:46;;;;;;;5.05;1.92;;;;;;;19.57;55.02;99220.41;6273433;28;20045;-71